createdAt,value
2023-01-25T00:00:45.746Z,26.08
2023-01-25T00:03:12.485Z,24.27
2023-01-25T00:05:39.163Z,26.33
2023-01-25T00:08:05.976Z,28.00
2023-01-25T00:10:32.621Z,24.90
2023-01-25T00:12:59.210Z,25.10
2023-01-25T00:15:25.845Z,21.23
2023-01-25T00:17:52.643Z,23.85
2023-01-25T00:20:19.373Z,20.52
2023-01-25T00:22:45.961Z,22.13
2023-01-25T00:25:12.759Z,18.30
2023-01-25T00:27:39.871Z,18.58
2023-01-25T00:30:07.090Z,22.42
2023-01-25T00:32:42.081Z,23.15
2023-01-25T00:35:11.474Z,21.95
2023-01-25T00:37:40.573Z,22.02
2023-01-25T00:40:09.070Z,22.50
2023-01-25T00:42:35.686Z,18.50
2023-01-25T00:45:02.365Z,19.67
2023-01-25T00:47:29.602Z,19.05
2023-01-25T00:49:56.355Z,20.63
2023-01-25T00:52:23.077Z,23.08
2023-01-25T00:54:49.687Z,24.63
2023-01-25T00:57:16.293Z,21.58
2023-01-25T00:59:44.452Z,22.35
2023-01-25T01:02:11.941Z,21.88
2023-01-25T01:04:38.778Z,21.70
2023-01-25T01:07:05.591Z,22.23
2023-01-25T01:09:32.522Z,28.33
2023-01-25T01:11:59.125Z,27.35
2023-01-25T01:14:25.859Z,25.98
2023-01-25T01:16:52.553Z,31.08
2023-01-25T01:19:19.243Z,30.35
2023-01-25T01:21:45.938Z,27.75
2023-01-25T01:24:12.783Z,34.53
2023-01-25T01:26:39.436Z,33.22
2023-01-25T01:29:06.336Z,26.10
2023-01-25T01:31:33.236Z,25.67
2023-01-25T01:34:01.047Z,30.85
2023-01-25T01:36:29.205Z,27.10
2023-01-25T01:38:55.932Z,26.25
2023-01-25T01:41:22.674Z,29.65
2023-01-25T01:43:49.389Z,30.20
2023-01-25T01:46:21.809Z,27.05
2023-01-25T01:48:55.508Z,30.45
2023-01-25T01:51:44.863Z,25.10
2023-01-25T01:54:25.839Z,23.80
2023-01-25T01:56:58.848Z,28.52
2023-01-25T01:59:30.697Z,23.95
2023-01-25T02:01:57.424Z,26.85
2023-01-25T02:04:24.253Z,26.60
2023-01-25T02:06:58.853Z,23.75
2023-01-25T02:09:26.175Z,23.77
2023-01-25T02:11:52.901Z,29.60
2023-01-25T02:14:19.623Z,27.75
2023-01-25T02:16:46.303Z,28.00
2023-01-25T02:19:21.701Z,25.83
2023-01-25T02:21:48.380Z,27.35
2023-01-25T02:24:22.879Z,24.08
2023-01-25T02:26:49.649Z,27.10
2023-01-25T02:29:16.245Z,26.52
2023-01-25T02:31:46.036Z,25.25
2023-01-25T02:34:12.976Z,23.13
2023-01-25T02:36:39.595Z,20.30
2023-01-25T02:39:08.798Z,23.90
2023-01-25T02:41:37.540Z,23.42
2023-01-25T02:44:07.034Z,24.13
2023-01-25T02:46:36.004Z,21.90
2023-01-25T02:49:03.392Z,20.95
2023-01-25T02:51:32.804Z,21.52
2023-01-25T02:53:59.604Z,20.75
2023-01-25T02:56:26.872Z,18.92
2023-01-25T02:58:53.551Z,22.05
2023-01-25T03:01:20.513Z,27.45
2023-01-25T03:03:47.231Z,20.77
2023-01-25T03:06:13.943Z,23.45
2023-01-25T03:08:40.578Z,22.33
2023-01-25T03:11:07.358Z,23.73
2023-01-25T03:13:34.502Z,24.92
2023-01-25T03:16:04.514Z,23.13
2023-01-25T03:18:31.161Z,22.05
2023-01-25T03:21:03.868Z,21.52
2023-01-25T03:23:30.440Z,19.77
2023-01-25T03:26:08.083Z,23.15
2023-01-25T03:28:34.681Z,20.50
2023-01-25T03:31:01.473Z,22.38
2023-01-25T03:33:28.104Z,21.77
2023-01-25T03:35:55.237Z,26.13
2023-01-25T03:38:22.395Z,20.45
2023-01-25T03:40:48.998Z,22.92
2023-01-25T03:43:15.691Z,25.15
2023-01-25T03:45:42.479Z,19.70
2023-01-25T03:48:09.214Z,25.95
2023-01-25T03:50:35.871Z,22.80
2023-01-25T03:53:07.115Z,23.63
2023-01-25T03:55:34.382Z,25.77
2023-01-25T03:58:01.066Z,25.83
2023-01-25T04:00:27.726Z,28.42
2023-01-25T04:02:54.312Z,24.77
2023-01-25T04:05:21.126Z,23.05
2023-01-25T04:07:47.749Z,23.38
2023-01-25T04:10:14.499Z,21.38
2023-01-25T04:12:41.121Z,21.88
2023-01-25T04:15:08.783Z,20.67
2023-01-25T04:17:35.494Z,22.15
2023-01-25T04:20:02.149Z,20.30
2023-01-25T04:22:28.748Z,22.23
2023-01-25T04:24:55.331Z,23.38
2023-01-25T04:27:22.071Z,22.42
2023-01-25T04:29:48.726Z,25.08
2023-01-25T04:32:15.541Z,21.38
2023-01-25T04:34:42.233Z,22.63
2023-01-25T04:37:08.820Z,21.48
2023-01-25T04:39:35.385Z,19.50
2023-01-25T04:42:01.971Z,24.42
2023-01-25T04:44:28.792Z,19.67
2023-01-25T04:46:55.403Z,20.58
2023-01-25T04:49:21.990Z,19.10
2023-01-25T04:51:48.577Z,18.80
2023-01-25T04:54:15.239Z,18.90
2023-01-25T04:56:41.897Z,19.50
2023-01-25T04:59:08.507Z,20.33
2023-01-25T05:01:35.189Z,20.15
2023-01-25T05:04:01.851Z,21.38
2023-01-25T05:06:28.500Z,16.65
2023-01-25T05:08:55.116Z,24.67
2023-01-25T05:11:21.735Z,18.75
2023-01-25T05:13:48.349Z,23.27
2023-01-25T05:16:14.955Z,18.65
2023-01-25T05:18:48.544Z,20.33
2023-01-25T05:21:35.596Z,15.68
2023-01-25T05:24:02.193Z,14.50
2023-01-25T05:26:48.720Z,19.00
2023-01-25T05:29:15.319Z,17.20
2023-01-25T05:31:41.934Z,19.38
2023-01-25T05:34:09.243Z,17.83
2023-01-25T05:36:35.863Z,19.13
2023-01-25T05:39:02.424Z,19.45
2023-01-25T05:41:29.317Z,16.55
2023-01-25T05:43:55.937Z,17.45
2023-01-25T05:46:22.622Z,17.40
2023-01-25T05:48:49.289Z,19.42
2023-01-25T05:51:15.927Z,17.63
2023-01-25T05:53:42.545Z,15.23
2023-01-25T05:56:10.696Z,16.52
2023-01-25T05:58:38.014Z,15.05
2023-01-25T06:01:05.556Z,15.40
2023-01-25T06:03:32.499Z,15.63
2023-01-25T06:06:02.259Z,21.90
2023-01-25T06:08:29.845Z,12.77
2023-01-25T06:10:56.490Z,21.35
2023-01-25T06:13:23.446Z,15.65
2023-01-25T06:15:55.209Z,13.27
2023-01-25T06:18:22.062Z,14.55
2023-01-25T06:20:48.684Z,13.93
2023-01-25T06:23:15.289Z,17.02
2023-01-25T06:25:41.986Z,19.00
2023-01-25T06:28:08.620Z,15.48
2023-01-25T06:30:35.970Z,18.38
2023-01-25T06:33:02.880Z,14.70
2023-01-25T06:35:30.882Z,15.90
2023-01-25T06:37:58.012Z,13.77
2023-01-25T06:40:25.018Z,16.30
2023-01-25T06:42:51.704Z,14.45
2023-01-25T06:45:18.357Z,14.27
2023-01-25T06:47:46.605Z,12.07
2023-01-25T06:50:13.254Z,14.70
2023-01-25T06:52:40.114Z,18.08
2023-01-25T06:55:08.349Z,14.05
2023-01-25T06:57:35.533Z,18.15
2023-01-25T07:00:02.372Z,12.60
2023-01-25T07:02:29.078Z,12.25
2023-01-25T07:04:55.780Z,13.95
2023-01-25T07:07:22.370Z,15.18
2023-01-25T07:09:48.971Z,15.50
2023-01-25T07:12:15.671Z,16.02
2023-01-25T07:14:42.296Z,17.55
2023-01-25T07:17:08.882Z,27.50
2023-01-25T07:19:35.552Z,17.42
2023-01-25T07:22:02.264Z,14.40
2023-01-25T07:24:29.656Z,15.55
2023-01-25T07:26:56.548Z,15.07
2023-01-25T07:29:23.389Z,14.60
2023-01-25T07:31:50.111Z,17.75
2023-01-25T07:34:16.847Z,13.55
2023-01-25T07:36:43.813Z,11.68
2023-01-25T07:39:11.573Z,13.63
2023-01-25T07:41:38.485Z,14.00
2023-01-25T07:44:05.167Z,14.85
2023-01-25T07:46:31.852Z,11.05
2023-01-25T07:48:59.563Z,20.40
2023-01-25T07:51:27.813Z,17.85
2023-01-25T07:53:56.872Z,17.13
2023-01-25T07:56:25.044Z,14.35
2023-01-25T07:58:54.701Z,17.33
2023-01-25T08:01:22.597Z,19.55
2023-01-25T08:03:49.590Z,14.98
2023-01-25T08:06:16.399Z,12.13
2023-01-25T08:08:45.628Z,16.25
2023-01-25T08:11:16.586Z,16.88
2023-01-25T08:13:46.152Z,22.70
2023-01-25T08:16:13.841Z,12.95
2023-01-25T08:18:40.486Z,10.68
2023-01-25T08:21:07.329Z,11.90
2023-01-25T08:23:34.073Z,14.82
2023-01-25T08:26:05.541Z,15.20
2023-01-25T08:28:32.333Z,11.98
2023-01-25T08:31:09.987Z,14.88
2023-01-25T08:33:36.919Z,13.60
2023-01-25T08:36:03.876Z,18.10
2023-01-25T08:38:30.926Z,13.13
2023-01-25T08:41:05.940Z,13.10
2023-01-25T08:43:33.010Z,15.00
2023-01-25T08:45:59.755Z,11.55
2023-01-25T08:48:26.393Z,11.15
2023-01-25T08:50:53.085Z,12.63
2023-01-25T08:53:19.789Z,16.13
2023-01-25T08:55:46.499Z,12.85
2023-01-25T08:58:13.843Z,14.02
2023-01-25T09:00:41.119Z,12.10
2023-01-25T09:03:10.379Z,14.90
2023-01-25T09:05:37.820Z,22.48
2023-01-25T09:08:06.841Z,18.83
2023-01-25T09:10:33.668Z,21.60
2023-01-25T09:13:00.460Z,16.17
2023-01-25T09:15:27.197Z,16.63
2023-01-25T09:17:54.225Z,16.35
2023-01-25T09:20:21.039Z,25.38
2023-01-25T09:22:47.759Z,12.90
2023-01-25T09:25:15.112Z,13.75
2023-01-25T09:27:41.966Z,13.23
2023-01-25T09:30:16.556Z,13.75
2023-01-25T09:32:45.280Z,13.00
2023-01-25T09:35:12.020Z,12.40
2023-01-25T09:37:39.021Z,13.05
2023-01-25T09:40:07.439Z,16.08
2023-01-25T09:45:36.369Z,13.32
2023-01-25T09:48:24.271Z,17.90
2023-01-25T09:51:01.369Z,16.38
2023-01-25T09:53:36.967Z,19.85
2023-01-25T09:56:09.327Z,16.92
2023-01-25T09:58:38.675Z,18.00
2023-01-25T10:01:29.508Z,36.53
2023-01-25T10:04:16.328Z,15.82
2023-01-25T10:06:59.871Z,15.48
2023-01-25T10:09:57.775Z,16.02
2023-01-25T10:12:25.202Z,17.33
2023-01-25T10:14:52.156Z,20.92
2023-01-25T10:17:39.478Z,14.18
2023-01-25T10:20:35.813Z,16.08
2023-01-25T10:23:42.332Z,17.00
2023-01-25T10:26:17.995Z,16.27
2023-01-25T10:29:08.471Z,16.00
2023-01-25T10:31:44.177Z,17.67
2023-01-25T10:34:18.579Z,22.50
2023-01-25T10:36:47.206Z,17.98
2023-01-25T10:39:13.845Z,19.90
2023-01-25T10:41:43.058Z,21.25
2023-01-25T10:44:26.662Z,19.48
2023-01-25T10:47:17.267Z,18.27
2023-01-25T10:49:50.610Z,17.85
2023-01-25T10:52:19.392Z,21.10
2023-01-25T10:54:46.835Z,20.70
2023-01-25T10:57:17.136Z,20.60
2023-01-25T10:59:46.178Z,24.45
2023-01-25T11:02:40.553Z,19.23
2023-01-25T11:05:29.750Z,20.98
2023-01-25T11:07:57.347Z,19.23
2023-01-25T11:10:39.640Z,17.80
2023-01-25T11:19:26.757Z,19.00
2023-01-25T11:21:54.363Z,18.77
2023-01-25T11:24:21.258Z,20.50
2023-01-25T11:26:47.925Z,18.40
2023-01-25T11:29:17.394Z,19.95
2023-01-25T11:31:48.311Z,18.10
2023-01-25T11:34:16.916Z,17.65
2023-01-25T11:37:07.557Z,20.70
2023-01-25T11:42:48.145Z,19.50
2023-01-25T11:48:10.984Z,24.27
2023-01-25T11:50:42.313Z,25.00
2023-01-25T11:53:41.162Z,23.33
2023-01-25T11:56:21.584Z,21.90
2023-01-25T11:58:58.862Z,26.45
2023-01-25T12:02:08.397Z,24.27
2023-01-25T12:05:21.583Z,19.98
2023-01-25T12:08:04.401Z,17.33
2023-01-25T12:10:57.937Z,15.52
2023-01-25T12:17:06.769Z,23.95
2023-01-25T12:20:08.069Z,19.58
2023-01-25T12:22:46.293Z,14.80
2023-01-25T12:25:52.376Z,21.25
2023-01-25T12:28:29.197Z,15.50
2023-01-25T12:31:05.603Z,17.88
2023-01-25T12:33:42.449Z,20.50
2023-01-25T12:36:34.260Z,33.45
2023-01-25T12:41:46.478Z,17.52
2023-01-25T12:44:17.462Z,19.40
2023-01-25T12:47:05.836Z,21.25
2023-01-25T12:49:38.344Z,21.95
2023-01-25T12:54:37.903Z,20.80
2023-01-25T13:00:02.225Z,22.30
2023-01-25T13:03:08.993Z,21.77
2023-01-25T13:05:58.676Z,22.48
2023-01-25T13:08:39.385Z,29.30
2023-01-25T13:11:43.129Z,23.60
2023-01-25T13:14:25.990Z,19.60
2023-01-25T13:17:09.473Z,19.25
2023-01-25T13:19:42.078Z,25.77
2023-01-25T13:22:10.746Z,23.85
2023-01-25T13:25:07.503Z,23.45
2023-01-25T13:27:36.390Z,23.65
2023-01-25T13:30:26.267Z,23.25
2023-01-25T13:32:55.515Z,32.55
2023-01-25T13:35:38.863Z,27.63
2023-01-25T13:41:03.563Z,18.40
2023-01-25T13:43:30.205Z,24.65
2023-01-25T13:45:57.041Z,26.20
2023-01-25T13:48:24.706Z,22.50
2023-01-25T13:50:55.802Z,21.58
2023-01-25T13:53:24.113Z,23.95
2023-01-25T13:55:52.617Z,25.73
2023-01-25T13:58:26.046Z,22.00
2023-01-25T14:00:57.123Z,20.80
2023-01-25T14:03:28.398Z,25.52
2023-01-25T14:05:56.805Z,23.45
2023-01-25T14:08:25.017Z,23.00
2023-01-25T14:10:51.980Z,27.00
2023-01-25T14:13:18.639Z,25.17
2023-01-25T14:16:01.384Z,22.20
2023-01-25T14:21:15.754Z,20.98
2023-01-25T14:23:42.420Z,22.40
2023-01-25T14:26:28.991Z,25.65
2023-01-25T14:29:01.995Z,29.10
2023-01-25T14:31:36.807Z,28.65
2023-01-25T14:34:04.708Z,31.75
2023-01-25T14:36:34.139Z,32.58
2023-01-25T14:39:02.526Z,32.85
2023-01-25T14:41:32.687Z,32.72
2023-01-25T14:44:11.185Z,34.28
2023-01-25T14:46:38.256Z,35.20
2023-01-25T14:52:09.732Z,32.28
2023-01-25T14:54:37.860Z,36.50
2023-01-25T14:57:06.054Z,33.83
2023-01-25T14:59:40.637Z,25.38
2023-01-25T15:02:32.892Z,30.52
2023-01-25T15:05:11.149Z,33.45
2023-01-25T15:07:44.196Z,29.83
2023-01-25T15:10:31.343Z,34.08
2023-01-25T15:13:07.657Z,28.15
2023-01-25T15:18:51.693Z,26.15
2023-01-25T15:21:27.696Z,27.75
2023-01-25T15:23:56.371Z,22.05
2023-01-25T15:26:25.665Z,22.48
2023-01-25T15:28:54.846Z,29.40
2023-01-25T15:31:24.984Z,24.38
2023-01-25T15:33:51.667Z,24.10
2023-01-25T15:36:18.593Z,24.05
2023-01-25T15:38:45.331Z,27.63
2023-01-25T15:41:18.753Z,23.48
2023-01-25T15:43:46.142Z,31.88
2023-01-25T15:46:20.712Z,25.42
2023-01-25T15:48:48.249Z,25.25
2023-01-25T15:51:14.928Z,31.42
2023-01-25T15:53:41.626Z,27.55
2023-01-25T15:56:13.180Z,30.90
2023-01-25T15:58:41.205Z,30.17
2023-01-25T16:01:07.954Z,30.10
2023-01-25T16:03:34.608Z,29.80
2023-01-25T16:06:04.393Z,28.52
2023-01-25T16:08:31.142Z,26.02
2023-01-25T16:10:57.768Z,28.13
2023-01-25T16:13:24.901Z,27.67
2023-01-25T16:15:53.318Z,30.42
2023-01-25T16:18:19.988Z,23.48
2023-01-25T16:20:46.628Z,22.88
2023-01-25T16:23:13.440Z,26.83
2023-01-25T16:25:40.672Z,28.65
2023-01-25T16:28:13.511Z,29.98
2023-01-25T16:30:41.071Z,26.25
2023-01-25T16:33:07.663Z,30.83
2023-01-25T16:35:34.274Z,27.08
2023-01-25T16:38:00.968Z,27.63
2023-01-25T16:40:36.593Z,33.60
2023-01-25T16:43:04.106Z,24.40
2023-01-25T16:45:31.392Z,31.02
2023-01-25T16:47:57.969Z,25.13
2023-01-25T16:50:24.658Z,22.80
2023-01-25T16:52:51.553Z,26.25
2023-01-25T16:55:19.087Z,23.33
2023-01-25T16:57:49.420Z,24.77
2023-01-25T17:00:16.292Z,23.23
2023-01-25T17:02:56.971Z,30.10
2023-01-25T17:05:27.623Z,23.63
2023-01-25T17:07:54.323Z,18.95
2023-01-25T17:10:20.929Z,24.73
2023-01-25T17:12:47.700Z,24.55
2023-01-25T17:15:14.390Z,19.48
2023-01-25T17:17:41.242Z,27.67
2023-01-25T17:20:09.119Z,23.80
2023-01-25T17:22:37.521Z,23.60
2023-01-25T17:25:05.381Z,20.75
2023-01-25T17:27:32.218Z,22.92
2023-01-25T17:29:58.888Z,20.05
2023-01-25T17:32:25.600Z,19.65
2023-01-25T17:34:53.711Z,22.85
2023-01-25T17:37:20.347Z,19.85
2023-01-25T17:39:47.640Z,20.35
2023-01-25T17:42:14.487Z,21.38
2023-01-25T17:44:41.131Z,19.45
2023-01-25T17:47:07.710Z,16.90
2023-01-25T17:49:34.459Z,14.00
2023-01-25T17:52:02.857Z,21.45
2023-01-25T17:54:29.535Z,20.70
2023-01-25T17:56:56.363Z,15.30
2023-01-25T17:59:23.060Z,19.15
2023-01-25T18:01:50.589Z,18.80
2023-01-25T18:04:17.610Z,15.35
2023-01-25T18:06:44.561Z,15.25
2023-01-25T18:09:11.224Z,20.20
2023-01-25T18:11:39.820Z,22.52
2023-01-25T18:14:08.864Z,20.25
2023-01-25T18:16:37.234Z,17.63
2023-01-25T18:19:03.997Z,20.75
2023-01-25T18:21:31.963Z,21.55
2023-01-25T18:24:01.058Z,19.65
2023-01-25T18:26:31.756Z,21.05
2023-01-25T18:29:03.659Z,24.50
2023-01-25T18:31:30.647Z,20.25
2023-01-25T18:33:58.217Z,23.33
2023-01-25T18:36:25.183Z,24.13
2023-01-25T18:38:51.826Z,19.70
2023-01-25T18:41:18.483Z,17.85
2023-01-25T18:43:48.141Z,24.60
2023-01-25T18:46:14.840Z,23.85
2023-01-25T18:48:43.506Z,21.48
2023-01-25T18:51:11.440Z,22.30
2023-01-25T18:53:40.220Z,21.73
2023-01-25T18:56:08.295Z,22.48
2023-01-25T18:58:36.181Z,25.45
2023-01-25T19:01:04.528Z,20.60
2023-01-25T19:03:31.412Z,22.80
2023-01-25T19:05:58.823Z,23.38
2023-01-25T19:08:25.707Z,24.52
2023-01-25T19:11:00.890Z,24.15
2023-01-25T19:13:27.919Z,22.02
2023-01-25T19:16:04.019Z,26.02
2023-01-25T19:18:32.237Z,26.13
2023-01-25T19:20:59.192Z,18.58
2023-01-25T19:23:25.992Z,23.77
2023-01-25T19:25:54.319Z,24.52
2023-01-25T19:28:21.724Z,24.52
2023-01-25T19:30:48.519Z,21.63
2023-01-25T19:33:15.299Z,26.50
2023-01-25T19:35:41.949Z,25.17
2023-01-25T19:38:08.539Z,22.92
2023-01-25T19:40:35.391Z,20.67
2023-01-25T19:43:01.971Z,26.10
2023-01-25T19:45:28.763Z,27.63
2023-01-25T19:47:55.469Z,23.58
2023-01-25T19:50:22.094Z,24.85
2023-01-25T19:52:48.731Z,21.00
2023-01-25T19:55:15.423Z,27.08
2023-01-25T19:57:42.017Z,23.13
2023-01-25T20:00:09.244Z,25.00
2023-01-25T20:02:35.937Z,22.13
2023-01-25T20:05:02.594Z,20.00
2023-01-25T20:07:29.274Z,17.05
2023-01-25T20:09:55.858Z,23.73
2023-01-25T20:12:25.012Z,20.48
2023-01-25T20:14:51.852Z,21.98
2023-01-25T20:17:19.136Z,21.83
2023-01-25T20:19:45.829Z,25.10
2023-01-25T20:22:12.521Z,22.90
2023-01-25T20:24:39.173Z,26.55
2023-01-25T20:27:07.353Z,20.88
2023-01-25T20:29:34.243Z,24.70
2023-01-25T20:32:03.256Z,24.38
2023-01-25T20:34:29.925Z,24.35
2023-01-25T20:36:56.556Z,23.33
2023-01-25T20:39:23.264Z,26.27
2023-01-25T20:41:53.159Z,22.15
2023-01-25T20:44:20.021Z,26.75
2023-01-25T20:46:46.798Z,23.10
2023-01-25T20:49:15.202Z,21.80
2023-01-25T20:51:42.867Z,20.42
2023-01-25T20:54:09.471Z,23.75
2023-01-25T20:56:36.330Z,21.02
2023-01-25T20:59:02.983Z,18.85
2023-01-25T21:01:30.922Z,25.55
2023-01-25T21:03:57.914Z,21.58
2023-01-25T21:06:25.435Z,22.25
2023-01-25T21:08:52.110Z,25.13
2023-01-25T21:11:18.770Z,19.67
2023-01-25T21:13:45.401Z,21.15
2023-01-25T21:16:15.088Z,25.58
2023-01-25T21:18:43.029Z,20.65
2023-01-25T21:21:12.374Z,25.13
2023-01-25T21:23:40.545Z,21.20
2023-01-25T21:26:07.837Z,23.77
2023-01-25T21:28:34.647Z,23.10
2023-01-25T21:31:22.191Z,23.05
2023-01-25T21:33:48.892Z,21.33
2023-01-25T21:36:15.832Z,18.88
2023-01-25T21:38:43.394Z,18.33
2023-01-25T21:41:12.330Z,21.23
2023-01-25T21:43:58.913Z,20.17
2023-01-25T21:46:26.893Z,19.80
2023-01-25T21:49:15.569Z,21.50
2023-01-25T21:51:49.335Z,21.92
2023-01-25T21:54:17.650Z,22.92
2023-01-25T21:56:44.981Z,19.55
2023-01-25T21:59:11.767Z,23.75
2023-01-25T22:01:38.451Z,20.50
2023-01-25T22:04:05.455Z,25.15
2023-01-25T22:06:32.453Z,19.90
2023-01-25T22:08:59.076Z,24.33
2023-01-25T22:11:25.847Z,24.00
2023-01-25T22:13:52.518Z,20.92
2023-01-25T22:16:21.203Z,19.67
2023-01-25T22:18:48.028Z,24.88
2023-01-25T22:21:22.572Z,24.75
2023-01-25T22:23:49.335Z,23.40
2023-01-25T22:26:18.058Z,28.80
2023-01-25T22:28:47.675Z,28.52
2023-01-25T22:31:15.209Z,27.80
2023-01-25T22:33:42.454Z,23.90
2023-01-25T22:36:10.096Z,22.52
2023-01-25T22:38:36.727Z,22.02
2023-01-25T22:41:05.182Z,22.17
2023-01-25T22:43:31.970Z,21.67
2023-01-25T22:45:58.612Z,27.40
2023-01-25T22:48:25.290Z,20.48
2023-01-25T22:50:51.853Z,20.67
2023-01-25T22:53:18.463Z,23.52
2023-01-25T22:55:45.118Z,20.75
2023-01-25T22:58:11.711Z,21.48
2023-01-25T23:00:38.358Z,22.48
2023-01-25T23:03:04.950Z,21.27
2023-01-25T23:05:31.601Z,21.33
2023-01-25T23:07:59.167Z,22.15
2023-01-25T23:10:25.836Z,17.27
2023-01-25T23:12:54.656Z,19.88
2023-01-25T23:15:21.382Z,19.20
2023-01-25T23:18:07.934Z,27.30
2023-01-25T23:20:34.662Z,20.05
2023-01-25T23:23:01.309Z,21.85
2023-01-25T23:25:28.174Z,22.98
2023-01-25T23:27:54.801Z,24.08
2023-01-25T23:30:21.380Z,23.48
2023-01-25T23:32:49.246Z,24.88
2023-01-25T23:35:18.108Z,25.23
2023-01-25T23:37:45.950Z,24.33
2023-01-25T23:40:13.597Z,27.48
2023-01-25T23:42:40.695Z,25.35
2023-01-25T23:45:08.120Z,20.67
2023-01-25T23:47:34.905Z,28.02
2023-01-25T23:50:01.568Z,22.45
2023-01-25T23:52:28.712Z,21.40
2023-01-25T23:54:55.356Z,25.00
2023-01-25T23:57:22.002Z,24.50
2023-01-25T23:59:48.635Z,25.48
